createdAt,value
2023-01-27T00:00:44.356Z,85.46
2023-01-27T00:03:13.429Z,85.30
2023-01-27T00:05:40.323Z,85.11
2023-01-27T00:08:06.924Z,85.19
2023-01-27T00:10:33.544Z,85.14
2023-01-27T00:13:18.900Z,85.22
2023-01-27T00:15:45.663Z,85.04
2023-01-27T00:18:12.557Z,85.08
2023-01-27T00:20:57.517Z,84.97
2023-01-27T00:23:44.500Z,84.73
2023-01-27T00:26:15.991Z,85.36
2023-01-27T00:28:43.586Z,85.30
2023-01-27T00:31:31.400Z,85.25
2023-01-27T00:34:02.072Z,85.19
2023-01-27T00:36:30.010Z,85.24
2023-01-27T00:38:57.173Z,85.27
2023-01-27T00:41:23.971Z,85.13
2023-01-27T00:43:53.555Z,84.71
2023-01-27T00:46:22.197Z,84.95
2023-01-27T00:48:49.415Z,84.59
2023-01-27T00:51:16.704Z,84.54
2023-01-27T00:53:43.402Z,84.77
2023-01-27T00:56:10.234Z,84.67
2023-01-27T00:58:37.341Z,84.62
2023-01-27T01:01:06.745Z,84.74
2023-01-27T01:03:35.228Z,84.58
2023-01-27T01:06:04.979Z,84.69
2023-01-27T01:08:32.954Z,84.68
2023-01-27T01:10:59.428Z,84.85
2023-01-27T01:13:30.081Z,84.87
2023-01-27T01:15:57.256Z,84.74
2023-01-27T01:18:24.265Z,84.40
2023-01-27T01:20:50.844Z,84.32
2023-01-27T01:23:17.307Z,84.51
2023-01-27T01:25:51.890Z,84.44
2023-01-27T01:28:18.278Z,84.19
2023-01-27T01:30:44.801Z,84.30
2023-01-27T01:33:11.314Z,84.46
2023-01-27T01:35:39.923Z,84.36
2023-01-27T01:38:06.623Z,84.20
2023-01-27T01:40:33.321Z,84.45
2023-01-27T01:43:04.250Z,84.21
2023-01-27T01:45:36.844Z,84.16
2023-01-27T01:48:04.476Z,84.03
2023-01-27T01:50:32.142Z,83.84
2023-01-27T01:53:00.546Z,83.85
2023-01-27T01:55:27.681Z,83.78
2023-01-27T01:57:54.291Z,83.56
2023-01-27T02:00:20.694Z,83.80
2023-01-27T02:02:49.335Z,83.82
2023-01-27T02:05:21.921Z,83.85
2023-01-27T02:07:59.247Z,83.66
2023-01-27T02:10:25.778Z,83.62
2023-01-27T02:12:52.845Z,83.36
2023-01-27T02:15:22.112Z,83.49
2023-01-27T02:17:49.484Z,83.15
2023-01-27T02:20:40.675Z,83.11
2023-01-27T02:23:41.233Z,83.53
2023-01-27T02:26:19.775Z,83.40
2023-01-27T02:28:51.356Z,83.77
2023-01-27T02:31:17.865Z,83.86
2023-01-27T02:33:44.490Z,83.90
2023-01-27T02:36:14.630Z,84.16
2023-01-27T02:38:46.123Z,84.08
2023-01-27T02:41:31.157Z,83.62
2023-01-27T02:43:57.869Z,84.26
2023-01-27T02:46:24.304Z,84.46
2023-01-27T02:48:50.798Z,84.57
2023-01-27T02:51:17.324Z,84.79
2023-01-27T02:53:43.991Z,84.43
2023-01-27T02:56:13.432Z,84.54
2023-01-27T02:58:39.779Z,84.63
2023-01-27T03:01:06.421Z,84.48
2023-01-27T03:03:33.023Z,84.40
2023-01-27T03:05:59.594Z,84.60
2023-01-27T03:08:26.138Z,84.23
2023-01-27T03:10:55.608Z,84.18
2023-01-27T03:13:23.546Z,84.15
2023-01-27T03:16:09.016Z,83.97
2023-01-27T03:18:35.907Z,83.95
2023-01-27T03:21:05.887Z,84.25
2023-01-27T03:23:34.818Z,84.34
2023-01-27T03:26:05.543Z,84.02
2023-01-27T03:28:35.993Z,84.22
2023-01-27T03:31:04.833Z,83.97
2023-01-27T03:33:31.616Z,83.90
2023-01-27T03:36:19.125Z,83.83
2023-01-27T03:39:03.983Z,84.16
2023-01-27T03:41:48.835Z,84.00
2023-01-27T03:44:34.093Z,83.90
2023-01-27T03:47:00.619Z,83.86
2023-01-27T03:49:27.163Z,83.71
2023-01-27T03:51:53.620Z,83.82
2023-01-27T03:54:20.203Z,83.42
2023-01-27T03:56:48.015Z,83.37
2023-01-27T03:59:15.002Z,83.56
2023-01-27T04:01:43.696Z,83.17
2023-01-27T04:04:29.885Z,83.10
2023-01-27T04:06:58.813Z,82.94
2023-01-27T04:09:28.027Z,83.21
2023-01-27T04:11:59.941Z,83.03
2023-01-27T04:14:38.284Z,83.00
2023-01-27T04:17:15.613Z,82.86
2023-01-27T04:19:42.108Z,82.83
2023-01-27T04:22:11.263Z,82.52
2023-01-27T04:24:38.041Z,82.53
2023-01-27T04:27:07.911Z,82.76
2023-01-27T04:29:40.731Z,82.36
2023-01-27T04:32:11.695Z,82.44
2023-01-27T04:34:39.185Z,82.37
2023-01-27T04:37:06.839Z,81.95
2023-01-27T04:39:34.335Z,81.59
2023-01-27T04:42:01.274Z,81.77
2023-01-27T04:44:27.680Z,81.83
2023-01-27T04:46:54.705Z,81.44
2023-01-27T04:49:21.219Z,81.45
2023-01-27T04:51:47.726Z,81.29
2023-01-27T04:54:14.196Z,80.80
2023-01-27T04:56:44.412Z,80.93
2023-01-27T04:59:13.264Z,81.01
2023-01-27T05:01:39.872Z,81.28
2023-01-27T05:04:06.426Z,80.92
2023-01-27T05:06:33.149Z,80.59
2023-01-27T05:08:59.892Z,80.20
2023-01-27T05:11:26.247Z,80.44
2023-01-27T05:13:53.256Z,80.43
2023-01-27T05:16:22.191Z,80.34
2023-01-27T05:18:50.655Z,80.22
2023-01-27T05:21:20.471Z,79.77
2023-01-27T05:23:47.395Z,79.51
2023-01-27T05:26:16.919Z,79.29
2023-01-27T05:28:45.704Z,79.63
2023-01-27T05:31:15.742Z,78.92
2023-01-27T05:33:42.702Z,78.72
2023-01-27T05:36:15.379Z,78.77
2023-01-27T05:38:42.464Z,78.79
2023-01-27T05:41:10.537Z,79.02
2023-01-27T05:43:39.151Z,78.39
2023-01-27T05:46:27.317Z,78.35
2023-01-27T05:48:56.080Z,78.44
2023-01-27T05:51:24.861Z,77.40
2023-01-27T05:53:51.395Z,77.34
2023-01-27T05:56:18.966Z,77.48
2023-01-27T05:58:45.542Z,77.41
2023-01-27T06:01:17.205Z,77.14
2023-01-27T06:03:44.701Z,77.03
2023-01-27T06:06:16.035Z,75.74
2023-01-27T06:08:42.818Z,75.14
2023-01-27T06:11:09.746Z,75.03
2023-01-27T06:13:38.599Z,74.39
2023-01-27T06:16:08.088Z,74.65
2023-01-27T06:18:35.366Z,74.88
2023-01-27T06:21:03.886Z,75.24
2023-01-27T06:23:30.791Z,75.17
2023-01-27T06:26:03.095Z,75.39
2023-01-27T06:28:30.101Z,75.21
2023-01-27T06:31:04.273Z,75.41
2023-01-27T06:33:30.755Z,75.79
2023-01-27T06:36:04.756Z,75.58
2023-01-27T06:38:31.454Z,75.46
2023-01-27T06:40:57.960Z,75.05
2023-01-27T06:43:24.410Z,74.53
2023-01-27T06:45:51.620Z,73.71
2023-01-27T06:48:18.077Z,74.15
2023-01-27T06:50:44.792Z,73.40
2023-01-27T06:53:11.253Z,73.79
2023-01-27T06:55:41.835Z,73.31
2023-01-27T06:58:09.816Z,73.43
2023-01-27T07:00:37.312Z,73.21
2023-01-27T07:03:04.509Z,73.43
2023-01-27T07:05:31.526Z,74.01
2023-01-27T07:07:58.314Z,74.30
2023-01-27T07:10:24.966Z,74.24
2023-01-27T07:12:51.504Z,74.24
2023-01-27T07:15:18.050Z,74.29
2023-01-27T07:17:44.656Z,74.18
2023-01-27T07:20:14.467Z,74.37
2023-01-27T07:22:41.489Z,74.58
2023-01-27T07:25:08.394Z,74.49
2023-01-27T07:27:34.853Z,74.65
2023-01-27T07:30:01.401Z,74.55
2023-01-27T07:32:28.576Z,74.33
2023-01-27T07:34:55.175Z,74.16
2023-01-27T07:37:22.156Z,73.98
2023-01-27T07:39:48.766Z,73.77
2023-01-27T07:42:15.229Z,73.75
2023-01-27T07:44:41.677Z,73.61
2023-01-27T07:47:08.118Z,73.15
2023-01-27T07:49:34.578Z,73.49
2023-01-27T07:52:01.100Z,73.53
2023-01-27T07:54:27.517Z,73.29
2023-01-27T07:56:53.906Z,73.10
2023-01-27T07:59:20.400Z,73.25
2023-01-27T08:01:48.295Z,73.43
2023-01-27T08:04:17.051Z,73.32
2023-01-27T08:06:43.443Z,73.02
2023-01-27T08:09:09.922Z,73.27
2023-01-27T08:11:36.351Z,73.58
2023-01-27T08:14:03.529Z,73.42
2023-01-27T08:16:30.464Z,73.68
2023-01-27T08:18:57.080Z,73.96
2023-01-27T08:21:25.190Z,73.83
2023-01-27T08:23:53.679Z,73.26
2023-01-27T08:26:20.212Z,72.71
2023-01-27T08:28:46.868Z,71.96
2023-01-27T08:31:15.953Z,72.33
2023-01-27T08:33:43.998Z,71.98
2023-01-27T08:36:14.417Z,71.43
2023-01-27T08:38:41.890Z,71.25
2023-01-27T08:41:12.508Z,71.16
2023-01-27T08:43:39.279Z,70.79
2023-01-27T08:46:06.780Z,69.71
2023-01-27T08:48:34.426Z,70.30
2023-01-27T08:51:02.257Z,70.66
2023-01-27T08:53:29.379Z,70.77
2023-01-27T08:55:57.916Z,70.62
2023-01-27T08:58:24.743Z,71.01
2023-01-27T09:00:51.429Z,71.25
2023-01-27T09:03:20.849Z,71.04
2023-01-27T09:05:47.666Z,70.04
2023-01-27T09:08:15.999Z,70.36
2023-01-27T09:10:43.052Z,69.57
2023-01-27T09:13:10.625Z,69.28
2023-01-27T09:15:38.283Z,69.16
2023-01-27T09:18:06.559Z,69.46
2023-01-27T09:20:34.329Z,69.82
2023-01-27T09:23:01.206Z,69.59
2023-01-27T09:25:28.038Z,70.60
2023-01-27T09:27:58.737Z,70.50
2023-01-27T09:30:26.814Z,70.19
2023-01-27T09:32:53.800Z,69.98
2023-01-27T09:35:20.188Z,68.11
2023-01-27T09:37:58.614Z,68.39
2023-01-27T09:40:54.378Z,67.13
2023-01-27T09:43:42.391Z,64.21
2023-01-27T09:46:46.776Z,62.11
2023-01-27T09:50:00.993Z,59.50
2023-01-27T09:52:46.770Z,57.74
2023-01-27T09:55:30.536Z,55.73
2023-01-27T09:57:59.694Z,54.50
2023-01-27T10:01:00.211Z,52.57
2023-01-27T10:03:43.796Z,50.85
2023-01-27T10:06:21.620Z,49.98
2023-01-27T10:08:50.920Z,49.28
2023-01-27T10:11:42.377Z,48.78
2023-01-27T10:14:26.863Z,48.70
2023-01-27T10:17:07.746Z,47.40
2023-01-27T10:19:54.594Z,46.64
2023-01-27T10:22:58.775Z,45.03
2023-01-27T10:25:31.259Z,44.19
2023-01-27T10:28:00.871Z,42.11
2023-01-27T10:30:36.946Z,42.24
2023-01-27T10:33:18.308Z,42.59
2023-01-27T10:35:58.838Z,43.50
2023-01-27T10:38:48.017Z,44.53
2023-01-27T10:41:48.945Z,45.49
2023-01-27T10:44:49.407Z,46.73
2023-01-27T10:47:26.903Z,47.78
2023-01-27T10:50:01.753Z,49.39
2023-01-27T10:52:40.156Z,50.51
2023-01-27T10:55:36.459Z,51.75
2023-01-27T10:58:20.665Z,52.62
2023-01-27T11:01:23.141Z,52.73
2023-01-27T11:03:50.334Z,54.20
2023-01-27T11:06:23.850Z,54.57
2023-01-27T11:08:56.056Z,54.92
2023-01-27T11:11:43.884Z,54.78
2023-01-27T11:14:22.731Z,55.86
2023-01-27T11:16:58.198Z,55.89
2023-01-27T11:19:54.467Z,55.87
2023-01-27T11:22:24.048Z,55.56
2023-01-27T11:25:05.749Z,56.26
2023-01-27T11:27:53.693Z,56.72
2023-01-27T11:30:27.409Z,56.77
2023-01-27T11:33:10.390Z,57.67
2023-01-27T11:35:37.692Z,57.22
2023-01-27T11:38:15.015Z,57.57
2023-01-27T11:40:43.817Z,57.77
2023-01-27T11:43:20.441Z,58.34
2023-01-27T11:45:49.663Z,58.88
2023-01-27T11:48:18.936Z,59.49
2023-01-27T11:50:46.379Z,59.30
2023-01-27T11:53:38.500Z,59.91
2023-01-27T11:56:10.488Z,59.96
2023-01-27T11:58:45.028Z,60.28
2023-01-27T12:01:18.719Z,60.25
2023-01-27T12:03:56.898Z,60.73
2023-01-27T12:06:38.237Z,60.84
2023-01-27T12:09:30.397Z,61.32
2023-01-27T12:12:15.342Z,61.11
2023-01-27T12:14:47.753Z,61.17
2023-01-27T12:17:24.589Z,60.89
2023-01-27T12:19:53.573Z,61.44
2023-01-27T12:22:44.085Z,61.68
2023-01-27T12:25:23.071Z,62.18
2023-01-27T12:27:59.753Z,62.49
2023-01-27T12:30:29.758Z,62.39
2023-01-27T12:32:58.805Z,62.25
2023-01-27T12:35:35.928Z,62.13
2023-01-27T12:38:07.358Z,62.18
2023-01-27T12:40:34.549Z,62.81
2023-01-27T12:43:21.482Z,63.12
2023-01-27T12:46:21.851Z,62.46
2023-01-27T12:48:51.536Z,61.87
2023-01-27T12:51:24.394Z,62.27
2023-01-27T12:54:11.208Z,62.65
2023-01-27T12:56:38.583Z,62.71
2023-01-27T12:59:05.084Z,62.56
2023-01-27T13:01:34.685Z,62.28
2023-01-27T13:04:10.396Z,62.00
2023-01-27T13:06:44.070Z,60.60
2023-01-27T13:09:30.720Z,60.18
2023-01-27T13:12:00.008Z,60.16
2023-01-27T13:14:39.836Z,60.63
2023-01-27T13:17:26.125Z,60.33
2023-01-27T13:19:55.275Z,61.00
2023-01-27T13:22:23.168Z,60.88
2023-01-27T13:24:54.613Z,61.44
2023-01-27T13:27:22.918Z,61.45
2023-01-27T13:30:05.746Z,61.96
2023-01-27T13:32:34.976Z,62.40
2023-01-27T13:35:24.418Z,62.71
2023-01-27T13:38:34.196Z,62.53
2023-01-27T13:41:14.297Z,62.87
2023-01-27T13:43:48.206Z,62.87
2023-01-27T13:46:39.448Z,63.31
2023-01-27T13:49:26.512Z,63.64
2023-01-27T13:51:52.948Z,63.82
2023-01-27T13:54:19.422Z,64.40
2023-01-27T13:56:49.093Z,65.14
2023-01-27T13:59:33.648Z,65.04
2023-01-27T14:02:39.307Z,65.22
2023-01-27T14:05:20.516Z,65.43
2023-01-27T14:08:32.062Z,65.58
2023-01-27T14:11:11.321Z,65.30
2023-01-27T14:14:02.183Z,65.77
2023-01-27T14:17:12.020Z,65.65
2023-01-27T14:19:57.150Z,65.99
2023-01-27T14:22:40.173Z,65.97
2023-01-27T14:25:12.502Z,66.03
2023-01-27T14:27:38.860Z,65.68
2023-01-27T14:30:21.631Z,65.94
2023-01-27T14:32:57.025Z,66.34
2023-01-27T14:35:53.203Z,66.59
2023-01-27T14:38:20.046Z,66.40
2023-01-27T14:41:10.395Z,66.31
2023-01-27T14:43:42.217Z,66.42
2023-01-27T14:46:37.936Z,66.40
2023-01-27T14:49:14.498Z,66.34
2023-01-27T14:51:54.579Z,66.23
2023-01-27T14:54:49.764Z,66.63
2023-01-27T14:57:43.354Z,66.40
2023-01-27T15:00:44.233Z,66.88
2023-01-27T15:03:44.391Z,66.60
2023-01-27T15:06:21.698Z,66.12
2023-01-27T15:08:57.312Z,66.42
2023-01-27T15:12:12.238Z,66.15
2023-01-27T15:15:05.540Z,66.30
2023-01-27T15:18:01.298Z,66.38
2023-01-27T15:20:54.147Z,66.26
2023-01-27T15:23:28.042Z,66.80
2023-01-27T15:26:09.135Z,66.84
2023-01-27T15:28:41.839Z,66.80
2023-01-27T15:31:16.946Z,67.05
2023-01-27T15:33:53.321Z,67.51
2023-01-27T15:36:57.240Z,67.33
2023-01-27T15:39:39.662Z,67.19
2023-01-27T15:42:13.937Z,67.58
2023-01-27T15:45:04.126Z,67.65
2023-01-27T15:47:36.214Z,67.84
2023-01-27T15:50:06.185Z,67.87
2023-01-27T15:52:42.941Z,68.02
2023-01-27T15:55:31.823Z,68.75
2023-01-27T15:58:42.266Z,68.82
2023-01-27T16:01:17.446Z,68.88
2023-01-27T16:03:53.233Z,68.72
2023-01-27T16:06:27.304Z,68.84
2023-01-27T16:09:20.107Z,68.97
2023-01-27T16:12:07.391Z,69.22
2023-01-27T16:15:17.284Z,69.36
2023-01-27T16:18:22.539Z,69.07
2023-01-27T16:21:38.781Z,69.00
2023-01-27T16:24:24.773Z,68.82
2023-01-27T16:27:07.062Z,69.04
2023-01-27T16:29:42.832Z,68.76
2023-01-27T16:32:29.277Z,68.88
2023-01-27T16:35:13.495Z,68.75
2023-01-27T16:38:05.051Z,68.48
2023-01-27T16:40:34.665Z,68.52
2023-01-27T16:43:28.033Z,68.99
2023-01-27T16:45:59.486Z,68.84
2023-01-27T16:48:35.870Z,69.05
2023-01-27T16:51:18.191Z,69.15
2023-01-27T16:53:48.852Z,69.01
2023-01-27T16:56:41.136Z,69.42
2023-01-27T16:59:23.415Z,69.04
2023-01-27T17:01:55.191Z,69.04
2023-01-27T17:04:42.412Z,68.65
2023-01-27T17:07:16.225Z,68.67
2023-01-27T17:09:53.866Z,68.62
2023-01-27T17:12:36.929Z,68.50
2023-01-27T17:15:34.969Z,68.09
2023-01-27T17:18:06.377Z,67.96
2023-01-27T17:20:47.508Z,68.33
2023-01-27T17:23:32.760Z,67.97
2023-01-27T17:26:12.841Z,68.08
2023-01-27T17:28:44.356Z,67.71
2023-01-27T17:31:28.083Z,67.52
2023-01-27T17:34:09.587Z,67.43
2023-01-27T17:37:17.989Z,67.41
2023-01-27T17:39:53.711Z,67.35
2023-01-27T17:42:22.134Z,67.28
2023-01-27T17:44:55.432Z,67.26
2023-01-27T17:47:28.661Z,67.44
2023-01-27T17:52:51.775Z,67.71
2023-01-27T17:55:27.303Z,68.04
2023-01-27T17:58:06.327Z,68.17
2023-01-27T18:00:38.846Z,68.45
2023-01-27T18:03:18.124Z,68.20
2023-01-27T18:05:49.383Z,68.34
2023-01-27T18:08:19.664Z,68.59
2023-01-27T18:10:47.348Z,68.86
2023-01-27T18:13:22.574Z,68.54
2023-01-27T18:16:02.753Z,68.80
2023-01-27T18:18:36.242Z,68.63
2023-01-27T18:21:27.382Z,68.78
2023-01-27T18:23:57.655Z,68.98
2023-01-27T18:26:34.358Z,69.02
2023-01-27T18:29:01.286Z,69.25
2023-01-27T18:31:37.161Z,69.18
2023-01-27T18:34:10.074Z,69.34
2023-01-27T18:37:01.237Z,69.31
2023-01-27T18:39:42.074Z,69.21
2023-01-27T18:42:23.567Z,69.31
2023-01-27T18:44:57.424Z,69.33
2023-01-27T18:47:35.367Z,69.61
2023-01-27T18:50:12.836Z,69.85
2023-01-27T18:52:40.500Z,69.95
2023-01-27T18:55:24.892Z,69.88
2023-01-27T18:57:57.496Z,69.86
2023-01-27T19:00:41.161Z,70.14
2023-01-27T19:03:15.078Z,70.19
2023-01-27T19:05:46.378Z,70.07
2023-01-27T19:08:26.375Z,70.32
2023-01-27T19:11:07.515Z,69.79
2023-01-27T19:13:35.292Z,69.72
2023-01-27T19:16:02.686Z,69.46
2023-01-27T19:18:36.211Z,69.47
2023-01-27T19:21:03.519Z,69.38
2023-01-27T19:23:30.784Z,69.58
2023-01-27T19:25:59.721Z,69.61
2023-01-27T19:28:30.803Z,69.86
2023-01-27T19:30:58.235Z,70.02
2023-01-27T19:33:26.422Z,69.70
2023-01-27T19:36:00.140Z,70.02
2023-01-27T19:38:28.761Z,70.23
2023-01-27T19:40:55.730Z,70.38
2023-01-27T19:43:22.536Z,70.29
2023-01-27T19:45:49.960Z,70.46
2023-01-27T19:48:21.547Z,70.36
2023-01-27T19:50:48.675Z,70.87
2023-01-27T19:53:16.575Z,70.37
2023-01-27T19:55:43.328Z,70.29
2023-01-27T19:58:23.020Z,70.46
2023-01-27T20:00:49.592Z,70.41
2023-01-27T20:03:16.567Z,70.33
2023-01-27T20:05:43.585Z,70.06
2023-01-27T20:08:18.352Z,70.34
2023-01-27T20:10:45.399Z,70.65
2023-01-27T20:13:17.522Z,70.64
2023-01-27T20:15:45.051Z,70.98
2023-01-27T20:18:15.043Z,71.08
2023-01-27T20:20:41.553Z,70.69
2023-01-27T20:23:10.980Z,70.35
2023-01-27T20:25:38.826Z,70.54
2023-01-27T20:28:05.660Z,70.71
2023-01-27T20:30:34.028Z,70.82
2023-01-27T20:33:03.384Z,70.97
2023-01-27T20:35:30.822Z,71.07
2023-01-27T20:37:57.619Z,71.06
2023-01-27T20:40:27.366Z,71.29
2023-01-27T20:42:53.809Z,71.96
2023-01-27T20:45:21.621Z,71.59
2023-01-27T20:47:50.355Z,71.44
2023-01-27T20:50:18.100Z,71.20
2023-01-27T20:52:44.928Z,71.36
2023-01-27T20:55:14.079Z,71.27
2023-01-27T20:57:40.972Z,71.57
2023-01-27T21:00:10.645Z,71.57
2023-01-27T21:02:37.155Z,71.45
2023-01-27T21:05:03.819Z,71.59
2023-01-27T21:07:30.232Z,71.59
2023-01-27T21:09:56.714Z,71.67
2023-01-27T21:12:23.148Z,71.69
2023-01-27T21:14:50.110Z,71.33
2023-01-27T21:17:17.337Z,71.91
2023-01-27T21:19:43.918Z,71.86
2023-01-27T21:22:10.313Z,71.88
2023-01-27T21:24:37.081Z,72.04
2023-01-27T21:27:05.578Z,71.88
2023-01-27T21:29:32.103Z,71.91
2023-01-27T21:31:58.766Z,71.77
2023-01-27T21:34:26.254Z,71.99
2023-01-27T21:36:54.832Z,71.91
2023-01-27T21:39:22.332Z,71.55
2023-01-27T21:41:54.495Z,71.31
2023-01-27T21:44:48.986Z,71.25
2023-01-27T21:47:18.145Z,71.31
2023-01-27T21:50:01.257Z,71.15
2023-01-27T21:52:40.685Z,71.07
2023-01-27T21:55:13.982Z,70.71
2023-01-27T21:57:41.721Z,70.26
2023-01-27T22:00:10.796Z,70.24
2023-01-27T22:02:37.704Z,70.25
2023-01-27T22:05:04.830Z,70.13
2023-01-27T22:07:34.323Z,70.08
2023-01-27T22:10:00.661Z,70.43
2023-01-27T22:12:27.166Z,70.33
2023-01-27T22:14:53.677Z,70.09
2023-01-27T22:17:20.191Z,70.40
2023-01-27T22:19:46.928Z,70.16
2023-01-27T22:22:13.762Z,70.57
2023-01-27T22:24:40.644Z,70.41
2023-01-27T22:27:07.167Z,70.28
2023-01-27T22:29:33.680Z,70.43
2023-01-27T22:32:00.239Z,70.60
2023-01-27T22:34:27.001Z,70.52
2023-01-27T22:36:53.606Z,70.69
2023-01-27T22:39:20.110Z,70.81
2023-01-27T22:41:46.768Z,70.65
2023-01-27T22:44:14.345Z,70.53
2023-01-27T22:46:42.685Z,70.68
2023-01-27T22:49:10.542Z,70.88
2023-01-27T22:51:37.549Z,70.93
2023-01-27T22:54:04.299Z,70.83
2023-01-27T22:56:31.189Z,70.55
2023-01-27T22:58:57.873Z,70.65
2023-01-27T23:01:24.385Z,70.21
2023-01-27T23:03:51.038Z,70.86
2023-01-27T23:06:17.556Z,70.93
2023-01-27T23:08:44.223Z,71.00
2023-01-27T23:11:11.895Z,70.90
2023-01-27T23:13:38.474Z,70.87
2023-01-27T23:16:05.437Z,70.80
2023-01-27T23:18:32.710Z,71.07
2023-01-27T23:21:07.610Z,71.10
2023-01-27T23:23:37.357Z,70.95
2023-01-27T23:26:08.463Z,70.99
2023-01-27T23:28:37.678Z,70.83
2023-01-27T23:31:07.313Z,70.76
2023-01-27T23:33:35.680Z,70.63
2023-01-27T23:36:02.287Z,70.81
2023-01-27T23:38:32.897Z,70.94
2023-01-27T23:41:02.435Z,70.82
2023-01-27T23:43:31.086Z,71.00
2023-01-27T23:45:57.923Z,70.92
2023-01-27T23:48:24.800Z,70.95
2023-01-27T23:50:51.315Z,70.92
2023-01-27T23:53:17.882Z,70.73
2023-01-27T23:55:44.529Z,70.76
2023-01-27T23:58:11.016Z,70.97
